createdAt,value
2022-09-24T00:00:00.751Z,8.63
2022-09-24T00:02:34.390Z,8.68
2022-09-24T00:05:04.372Z,8.60
2022-09-24T00:07:31.752Z,9.57
2022-09-24T00:09:59.091Z,8.60
2022-09-24T00:12:28.923Z,9.68
2022-09-24T00:14:58.451Z,8.30
2022-09-24T00:17:28.150Z,8.18
2022-09-24T00:19:57.664Z,7.13
2022-09-24T00:22:27.508Z,7.25
2022-09-24T00:25:13.221Z,10.93
2022-09-24T00:27:40.844Z,8.07
2022-09-24T00:30:08.513Z,8.07
2022-09-24T00:32:38.091Z,7.28
2022-09-24T00:35:06.791Z,8.35
2022-09-24T00:37:34.162Z,8.77
2022-09-24T00:40:01.777Z,9.00
2022-09-24T00:42:32.754Z,8.68
2022-09-24T00:45:02.491Z,9.27
2022-09-24T00:47:32.516Z,6.90
2022-09-24T00:50:18.009Z,8.35
2022-09-24T00:53:09.885Z,9.43
2022-09-24T00:55:51.350Z,7.00
2022-09-24T00:58:19.199Z,7.82
2022-09-24T01:00:47.326Z,9.38
2022-09-24T01:03:22.490Z,8.93
2022-09-24T01:05:50.611Z,10.68
2022-09-24T01:08:19.658Z,7.10
2022-09-24T01:10:55.827Z,8.63
2022-09-24T01:13:56.765Z,9.57
2022-09-24T01:16:42.120Z,9.52
2022-09-24T01:19:44.651Z,9.68
2022-09-24T01:22:33.098Z,8.93
2022-09-24T01:25:22.343Z,10.55
2022-09-24T01:28:10.041Z,8.38
2022-09-24T01:30:42.357Z,8.38
2022-09-24T01:33:19.334Z,8.23
2022-09-24T01:35:55.342Z,8.75
2022-09-24T01:38:29.377Z,8.18
2022-09-24T01:41:00.196Z,9.65
2022-09-24T01:43:30.933Z,9.43
2022-09-24T01:46:06.179Z,9.40
2022-09-24T01:48:38.949Z,9.45
2022-09-24T01:51:22.278Z,9.63
2022-09-24T01:54:25.751Z,8.85
2022-09-24T01:57:02.679Z,8.95
2022-09-24T01:59:38.318Z,9.10
2022-09-24T02:02:18.756Z,8.18
2022-09-24T02:04:55.864Z,8.15
2022-09-24T02:07:36.206Z,7.40
2022-09-24T02:10:03.945Z,8.65
2022-09-24T02:12:45.608Z,8.05
2022-09-24T02:15:33.881Z,7.43
2022-09-24T02:18:07.554Z,10.38
2022-09-24T02:20:36.655Z,7.85
2022-09-24T02:23:11.991Z,7.22
2022-09-24T02:25:52.615Z,7.18
2022-09-24T02:28:22.882Z,9.90
2022-09-24T02:31:05.659Z,9.70
2022-09-24T02:33:57.825Z,7.03
2022-09-24T02:36:25.927Z,9.85
2022-09-24T02:38:53.570Z,11.07
2022-09-24T02:41:24.018Z,9.18
2022-09-24T02:43:55.782Z,10.30
2022-09-24T02:48:55.071Z,9.88
2022-09-24T02:51:25.525Z,8.35
2022-09-24T02:53:52.932Z,7.72
2022-09-24T02:56:20.484Z,10.27
2022-09-24T02:58:47.868Z,7.60
2022-09-24T03:01:19.982Z,7.13
2022-09-24T03:03:48.206Z,8.93
2022-09-24T03:06:17.940Z,10.25
2022-09-24T03:08:50.308Z,7.40
2022-09-24T03:11:18.913Z,8.38
2022-09-24T03:13:46.454Z,7.25
2022-09-24T03:16:14.403Z,9.63
2022-09-24T03:18:46.139Z,8.73
2022-09-24T03:21:15.765Z,7.70
2022-09-24T03:23:43.532Z,8.88
2022-09-24T03:26:11.498Z,8.25
2022-09-24T03:28:39.174Z,8.10
2022-09-24T03:31:08.015Z,8.43
2022-09-24T03:33:37.880Z,7.97
2022-09-24T03:36:20.285Z,8.00
2022-09-24T03:38:52.944Z,8.82
2022-09-24T03:41:20.452Z,9.10
2022-09-24T03:43:47.782Z,7.07
2022-09-24T03:46:20.446Z,8.05
2022-09-24T03:48:48.340Z,12.18
2022-09-24T03:51:19.384Z,6.95
2022-09-24T03:53:47.717Z,7.85
2022-09-24T03:56:18.055Z,9.75
2022-09-24T03:58:47.682Z,9.02
2022-09-24T04:01:21.565Z,8.45
2022-09-24T04:03:57.680Z,10.55
2022-09-24T04:06:27.515Z,9.27
2022-09-24T04:08:55.604Z,8.43
2022-09-24T04:11:24.067Z,7.57
2022-09-24T04:13:51.835Z,9.70
2022-09-24T04:16:21.870Z,8.75
2022-09-24T04:18:49.706Z,8.80
2022-09-24T04:21:17.146Z,8.02
2022-09-24T04:23:49.433Z,8.32
2022-09-24T04:26:20.790Z,8.77
2022-09-24T04:28:53.587Z,8.68
2022-09-24T04:31:23.622Z,7.53
2022-09-24T04:33:50.995Z,7.78
2022-09-24T04:36:21.166Z,7.55
2022-09-24T04:38:48.457Z,9.57
2022-09-24T04:41:18.181Z,7.22
2022-09-24T04:43:46.813Z,9.57
2022-09-24T04:46:14.996Z,7.38
2022-09-24T04:48:42.425Z,7.38
2022-09-24T04:51:10.520Z,6.70
2022-09-24T04:53:38.042Z,7.55
2022-09-24T04:56:11.878Z,8.02
2022-09-24T04:58:40.139Z,7.55
2022-09-24T05:01:09.905Z,8.88
2022-09-24T05:03:37.167Z,8.57
2022-09-24T05:06:06.959Z,7.07
2022-09-24T05:08:34.503Z,9.05
2022-09-24T05:11:02.571Z,9.43
2022-09-24T05:13:29.834Z,7.57
2022-09-24T05:16:01.045Z,8.15
2022-09-24T05:18:28.730Z,7.18
2022-09-24T05:21:00.570Z,7.15
2022-09-24T05:26:18.934Z,9.05
2022-09-24T05:28:46.268Z,6.50
2022-09-24T05:31:17.295Z,7.68
2022-09-24T05:33:44.816Z,6.70
2022-09-24T05:36:12.271Z,10.05
2022-09-24T05:38:41.685Z,10.13
2022-09-24T05:41:13.263Z,8.75
2022-09-24T05:43:41.236Z,7.05
2022-09-24T05:46:15.892Z,7.60
2022-09-24T05:48:43.503Z,7.38
2022-09-24T05:51:11.068Z,8.95
2022-09-24T05:53:38.437Z,8.07
2022-09-24T05:56:06.296Z,9.25
2022-09-24T05:58:33.998Z,7.95
2022-09-24T06:01:04.169Z,9.50
2022-09-24T06:03:34.858Z,7.78
2022-09-24T06:06:02.438Z,7.97
2022-09-24T06:08:34.257Z,7.40
2022-09-24T06:13:35.398Z,8.13
2022-09-24T06:16:04.589Z,9.07
2022-09-24T06:18:35.179Z,7.43
2022-09-24T06:21:09.350Z,9.05
2022-09-24T06:23:39.770Z,9.30
2022-09-24T06:26:10.730Z,7.53
2022-09-24T06:28:39.340Z,8.35
2022-09-24T06:31:08.115Z,7.70
2022-09-24T06:33:35.712Z,8.55
2022-09-24T06:36:07.288Z,8.02
2022-09-24T06:38:39.543Z,8.35
2022-09-24T06:41:10.912Z,9.45
2022-09-24T06:43:38.377Z,9.50
2022-09-24T06:46:08.327Z,7.20
2022-09-24T06:48:38.211Z,8.68
2022-09-24T06:51:06.115Z,8.68
2022-09-24T06:53:33.853Z,7.53
2022-09-24T06:56:04.139Z,7.45
2022-09-24T06:58:31.877Z,8.35
2022-09-24T07:01:04.763Z,7.55
2022-09-24T07:03:36.393Z,8.75
2022-09-24T07:06:05.688Z,9.63
2022-09-24T07:08:39.075Z,8.25
2022-09-24T07:11:06.548Z,10.18
2022-09-24T07:13:38.523Z,7.72
2022-09-24T07:16:06.410Z,7.72
2022-09-24T07:18:37.623Z,7.22
2022-09-24T07:21:07.104Z,6.88
2022-09-24T07:23:39.315Z,6.80
2022-09-24T07:26:08.918Z,7.28
2022-09-24T07:28:36.378Z,6.68
2022-09-24T07:31:03.771Z,7.18
2022-09-24T07:33:34.219Z,7.38
2022-09-24T07:36:10.074Z,7.40
2022-09-24T07:38:40.125Z,7.28
2022-09-24T07:41:13.000Z,8.57
2022-09-24T07:43:40.577Z,6.95
2022-09-24T07:46:08.551Z,6.18
2022-09-24T07:48:39.175Z,6.53
2022-09-24T07:51:10.342Z,7.32
2022-09-24T07:53:38.278Z,7.18
2022-09-24T07:56:07.967Z,6.25
2022-09-24T07:58:35.978Z,7.38
2022-09-24T08:01:03.399Z,6.53
2022-09-24T08:03:31.858Z,6.20
2022-09-24T08:06:01.430Z,6.30
2022-09-24T08:08:31.124Z,5.75
2022-09-24T08:11:03.877Z,5.40
2022-09-24T08:13:31.362Z,5.95
2022-09-24T08:15:59.903Z,5.60
2022-09-24T08:18:28.889Z,8.23
2022-09-24T08:20:56.549Z,5.70
2022-09-24T08:23:24.469Z,6.05
2022-09-24T08:25:55.408Z,7.25
2022-09-24T08:28:25.176Z,5.50
2022-09-24T08:30:53.063Z,5.80
2022-09-24T08:33:20.524Z,5.45
2022-09-24T08:35:47.918Z,6.75
2022-09-24T08:38:15.625Z,5.30
2022-09-24T08:40:57.203Z,5.10
2022-09-24T08:46:18.910Z,5.85
2022-09-24T08:48:52.514Z,6.28
2022-09-24T08:51:24.888Z,4.93
2022-09-24T08:54:07.333Z,5.25
2022-09-24T08:56:37.687Z,5.10
2022-09-24T08:59:24.908Z,6.28
2022-09-24T09:02:04.521Z,5.57
2022-09-24T09:04:54.824Z,5.95
2022-09-24T09:07:33.903Z,5.72
2022-09-24T09:10:18.034Z,8.02
2022-09-24T09:12:45.422Z,6.82
2022-09-24T09:15:34.480Z,8.00
2022-09-24T09:18:10.777Z,6.85
2022-09-24T09:20:54.062Z,6.47
2022-09-24T09:23:47.354Z,6.78
2022-09-24T09:26:18.368Z,5.70
2022-09-24T09:28:49.377Z,5.90
2022-09-24T09:31:28.518Z,5.78
2022-09-24T09:34:24.635Z,5.18
2022-09-24T09:37:15.068Z,4.18
2022-09-24T09:40:31.634Z,4.90
2022-09-24T09:43:03.907Z,4.35
2022-09-24T09:46:01.630Z,4.30
2022-09-24T09:48:37.293Z,4.97
2022-09-24T09:51:08.961Z,4.88
2022-09-24T09:53:41.010Z,4.82
2022-09-24T09:56:13.223Z,4.40
2022-09-24T09:58:47.256Z,3.90
2022-09-24T10:01:19.752Z,5.07
2022-09-24T10:03:52.149Z,4.93
2022-09-24T10:06:32.257Z,4.97
2022-09-24T10:09:29.120Z,4.35
2022-09-24T10:12:07.968Z,5.57
2022-09-24T10:14:41.008Z,6.75
2022-09-24T10:17:18.507Z,4.90
2022-09-24T10:19:49.460Z,4.10
2022-09-24T10:22:26.780Z,9.65
2022-09-24T10:25:00.155Z,5.50
2022-09-24T10:27:37.761Z,5.68
2022-09-24T10:30:35.653Z,4.80
2022-09-24T10:33:08.974Z,4.45
2022-09-24T10:35:38.775Z,5.43
2022-09-24T10:38:18.964Z,4.47
2022-09-24T10:40:49.481Z,4.68
2022-09-24T10:43:23.784Z,4.00
2022-09-24T10:46:01.470Z,4.18
2022-09-24T10:48:56.832Z,6.55
2022-09-24T10:51:42.389Z,4.43
2022-09-24T10:54:34.417Z,4.05
2022-09-24T10:57:14.171Z,6.13
2022-09-24T11:00:00.987Z,5.05
2022-09-24T11:02:49.524Z,5.70
2022-09-24T11:05:22.724Z,4.22
2022-09-24T11:08:13.372Z,4.45
2022-09-24T11:10:59.271Z,3.65
2022-09-24T11:13:51.186Z,5.82
2022-09-24T11:16:39.239Z,4.70
2022-09-24T11:19:35.404Z,4.07
2022-09-24T11:22:44.675Z,3.78
2022-09-24T11:25:34.615Z,5.13
2022-09-24T11:28:36.905Z,3.67
2022-09-24T11:31:39.561Z,3.28
2022-09-24T11:34:28.949Z,4.85
2022-09-24T11:37:02.606Z,3.60
2022-09-24T11:39:42.364Z,3.63
2022-09-24T11:42:31.956Z,3.42
2022-09-24T11:45:17.920Z,3.50
2022-09-24T11:48:03.828Z,3.63
2022-09-24T11:51:06.536Z,4.75
2022-09-24T11:54:03.484Z,3.72
2022-09-24T11:56:47.603Z,4.07
2022-09-24T11:59:31.549Z,4.63
2022-09-24T12:02:17.960Z,3.33
2022-09-24T12:05:03.343Z,4.55
2022-09-24T12:07:35.350Z,3.88
2022-09-24T12:10:29.868Z,5.55
2022-09-24T12:13:13.049Z,5.50
2022-09-24T12:15:56.816Z,4.13
2022-09-24T12:18:29.302Z,5.18
2022-09-24T12:21:07.559Z,8.88
2022-09-24T12:23:40.989Z,4.38
2022-09-24T12:26:11.402Z,4.10
2022-09-24T12:29:19.359Z,4.13
2022-09-24T12:32:22.205Z,3.90
2022-09-24T12:35:15.587Z,4.13
2022-09-24T12:37:45.839Z,3.47
2022-09-24T12:40:16.059Z,4.80
2022-09-24T12:42:49.638Z,3.60
2022-09-24T12:45:22.485Z,3.88
2022-09-24T12:47:55.455Z,5.05
2022-09-24T12:50:41.098Z,5.97
2022-09-24T12:53:34.725Z,6.00
2022-09-24T12:56:08.304Z,5.03
2022-09-24T12:58:44.366Z,5.05
2022-09-24T13:01:34.722Z,3.22
2022-09-24T13:04:15.711Z,3.30
2022-09-24T13:06:49.008Z,3.20
2022-09-24T13:09:38.793Z,3.78
2022-09-24T13:12:23.289Z,3.38
2022-09-24T13:15:02.932Z,3.92
2022-09-24T13:17:36.172Z,4.45
2022-09-24T13:20:09.296Z,3.67
2022-09-24T13:22:37.890Z,3.63
2022-09-24T13:25:10.090Z,4.78
2022-09-24T13:27:38.877Z,3.30
2022-09-24T13:30:12.096Z,5.95
2022-09-24T13:32:55.561Z,3.92
2022-09-24T13:35:28.971Z,3.45
2022-09-24T13:38:06.801Z,4.97
2022-09-24T13:40:41.086Z,4.15
2022-09-24T13:43:34.498Z,3.38
2022-09-24T13:46:05.202Z,4.45
2022-09-24T13:48:46.906Z,3.85
2022-09-24T13:51:19.265Z,5.80
2022-09-24T13:54:09.590Z,3.65
2022-09-24T13:56:37.197Z,3.95
2022-09-24T13:59:13.636Z,6.55
2022-09-24T14:01:47.733Z,4.10
2022-09-24T14:04:22.804Z,8.73
2022-09-24T14:06:56.162Z,3.75
2022-09-24T14:09:31.246Z,4.30
2022-09-24T14:12:15.290Z,3.85
2022-09-24T14:14:54.281Z,4.93
2022-09-24T14:17:23.065Z,3.67
2022-09-24T14:19:56.505Z,4.00
2022-09-24T14:22:25.904Z,3.50
2022-09-24T14:25:03.627Z,3.88
2022-09-24T14:27:33.107Z,3.55
2022-09-24T14:30:19.414Z,6.47
2022-09-24T14:32:54.089Z,5.63
2022-09-24T14:35:37.168Z,3.50
2022-09-24T14:38:36.235Z,3.80
2022-09-24T14:41:15.638Z,4.13
2022-09-24T14:43:45.359Z,4.55
2022-09-24T14:46:22.957Z,3.88
2022-09-24T14:48:53.321Z,3.67
2022-09-24T14:51:26.990Z,3.40
2022-09-24T14:54:22.071Z,4.57
2022-09-24T14:56:52.778Z,5.75
2022-09-24T14:59:36.730Z,3.70
2022-09-24T15:02:15.685Z,4.03
2022-09-24T15:04:54.838Z,5.07
2022-09-24T15:07:29.198Z,4.85
2022-09-24T15:10:02.392Z,4.38
2022-09-24T15:12:38.204Z,4.43
2022-09-24T15:15:26.534Z,3.60
2022-09-24T15:17:53.958Z,4.18
2022-09-24T15:20:23.756Z,2.88
2022-09-24T15:22:51.256Z,5.93
2022-09-24T15:25:18.864Z,4.60
2022-09-24T15:27:56.274Z,4.85
2022-09-24T15:30:26.284Z,5.18
2022-09-24T15:32:53.683Z,4.38
2022-09-24T15:35:21.307Z,3.55
2022-09-24T15:37:49.545Z,3.63
2022-09-24T15:40:23.488Z,3.95
2022-09-24T15:42:53.683Z,5.03
2022-09-24T15:45:26.339Z,4.28
2022-09-24T15:47:56.481Z,3.40
2022-09-24T15:50:26.888Z,3.53
2022-09-24T15:52:58.510Z,6.85
2022-09-24T15:55:31.485Z,3.30
2022-09-24T15:57:59.310Z,4.57
2022-09-24T16:00:31.203Z,4.57
2022-09-24T16:02:59.129Z,4.90
2022-09-24T16:05:29.846Z,4.30
2022-09-24T16:07:59.803Z,5.80
2022-09-24T16:10:27.291Z,5.57
2022-09-24T16:12:54.813Z,5.03
2022-09-24T16:15:22.559Z,5.22
2022-09-24T16:17:50.215Z,4.03
2022-09-24T16:20:17.894Z,5.28
2022-09-24T16:22:49.048Z,6.70
2022-09-24T16:25:16.650Z,4.53
2022-09-24T16:27:46.125Z,4.45
2022-09-24T16:30:13.764Z,3.90
2022-09-24T16:32:41.313Z,5.32
2022-09-24T16:35:11.185Z,4.85
2022-09-24T16:37:38.534Z,5.22
2022-09-24T16:40:12.279Z,5.28
2022-09-24T16:42:39.944Z,4.18
2022-09-24T16:45:14.468Z,5.63
2022-09-24T16:47:41.877Z,4.35
2022-09-24T16:50:09.675Z,5.97
2022-09-24T16:52:45.987Z,6.50
2022-09-24T16:55:15.962Z,6.05
2022-09-24T16:57:43.321Z,6.40
2022-09-24T17:00:11.411Z,8.35
2022-09-24T17:02:42.371Z,6.30
2022-09-24T17:05:12.312Z,5.93
2022-09-24T17:07:39.835Z,7.25
2022-09-24T17:10:15.990Z,6.70
2022-09-24T17:12:46.377Z,7.72
2022-09-24T17:15:19.310Z,12.15
2022-09-24T17:17:50.350Z,10.90
2022-09-24T17:20:19.196Z,13.27
2022-09-24T17:22:48.637Z,12.32
2022-09-24T17:25:16.172Z,11.75
2022-09-24T17:27:44.994Z,12.32
2022-09-24T17:30:12.744Z,9.93
2022-09-24T17:32:42.586Z,9.63
2022-09-24T17:35:13.542Z,8.75
2022-09-24T17:37:40.806Z,8.40
2022-09-24T17:40:21.357Z,7.85
2022-09-24T17:42:54.104Z,7.38
2022-09-24T17:45:22.211Z,8.68
2022-09-24T17:47:58.589Z,9.60
2022-09-24T17:50:26.269Z,8.60
2022-09-24T17:52:53.654Z,6.93
2022-09-24T17:55:21.410Z,7.18
2022-09-24T17:57:53.911Z,8.10
2022-09-24T18:00:23.833Z,8.77
2022-09-24T18:02:56.327Z,7.20
2022-09-24T18:05:25.991Z,10.27
2022-09-24T18:07:53.359Z,10.38
2022-09-24T18:10:20.798Z,10.70
2022-09-24T18:12:48.228Z,11.70
2022-09-24T18:15:15.677Z,11.15
2022-09-24T18:17:46.375Z,11.60
2022-09-24T18:20:14.229Z,11.35
2022-09-24T18:22:48.365Z,11.77
2022-09-24T18:25:16.213Z,12.38
2022-09-24T18:27:46.578Z,13.70
2022-09-24T18:30:15.622Z,12.93
2022-09-24T18:32:46.464Z,11.20
2022-09-24T18:35:14.156Z,13.10
2022-09-24T18:37:41.634Z,11.30
2022-09-24T18:40:14.267Z,15.65
2022-09-24T18:42:41.808Z,13.23
2022-09-24T18:45:09.633Z,11.65
2022-09-24T18:47:38.352Z,11.75
2022-09-24T18:50:06.422Z,11.93
2022-09-24T18:52:34.396Z,16.52
2022-09-24T18:55:02.659Z,12.93
2022-09-24T18:57:31.643Z,14.35
2022-09-24T18:59:59.004Z,13.77
2022-09-24T19:02:26.638Z,15.57
2022-09-24T19:04:54.103Z,12.65
2022-09-24T19:07:23.788Z,13.88
2022-09-24T19:09:51.240Z,12.20
2022-09-24T19:12:19.315Z,11.15
2022-09-24T19:14:48.097Z,13.15
2022-09-24T19:17:15.760Z,12.15
2022-09-24T19:19:52.122Z,11.15
2022-09-24T19:22:20.108Z,12.70
2022-09-24T19:24:49.401Z,10.57
2022-09-24T19:27:18.896Z,15.18
2022-09-24T19:29:46.493Z,13.90
2022-09-24T19:32:15.083Z,13.52
2022-09-24T19:34:42.479Z,13.32
2022-09-24T19:37:12.636Z,13.40
2022-09-24T19:39:40.011Z,12.70
2022-09-24T19:42:13.553Z,13.15
2022-09-24T19:44:41.158Z,12.80
2022-09-24T19:47:11.055Z,11.35
2022-09-24T19:49:38.472Z,13.15
2022-09-24T19:52:05.791Z,12.85
2022-09-24T19:54:35.423Z,14.93
2022-09-24T19:57:02.795Z,11.85
2022-09-24T19:59:32.939Z,14.13
2022-09-24T20:02:00.649Z,12.38
2022-09-24T20:04:30.647Z,11.40
2022-09-24T20:07:02.323Z,11.00
2022-09-24T20:09:32.870Z,10.40
2022-09-24T20:12:00.515Z,12.18
2022-09-24T20:14:32.788Z,13.07
2022-09-24T20:17:05.614Z,9.25
2022-09-24T20:19:33.064Z,9.88
2022-09-24T20:22:03.853Z,11.75
2022-09-24T20:24:31.247Z,10.85
2022-09-24T20:27:20.324Z,9.02
2022-09-24T20:29:48.876Z,12.57
2022-09-24T20:32:16.702Z,12.30
2022-09-24T20:34:46.641Z,12.73
2022-09-24T20:37:14.567Z,11.38
2022-09-24T20:39:41.964Z,11.55
2022-09-24T20:42:11.913Z,14.10
2022-09-24T20:44:39.608Z,12.88
2022-09-24T20:47:07.122Z,13.38
2022-09-24T20:49:35.137Z,11.18
2022-09-24T20:52:03.449Z,12.65
2022-09-24T20:54:35.250Z,11.82
2022-09-24T20:57:02.871Z,14.35
2022-09-24T20:59:36.930Z,12.13
2022-09-24T21:02:07.743Z,12.43
2022-09-24T21:04:44.671Z,12.18
2022-09-24T21:07:12.609Z,11.40
2022-09-24T21:09:43.302Z,11.38
2022-09-24T21:12:11.274Z,13.32
2022-09-24T21:14:38.824Z,12.98
2022-09-24T21:17:07.218Z,11.95
2022-09-24T21:19:35.726Z,11.65
2022-09-24T21:22:03.402Z,12.02
2022-09-24T21:24:31.809Z,12.23
2022-09-24T21:26:59.985Z,12.15
2022-09-24T21:29:27.745Z,11.55
2022-09-24T21:31:55.503Z,12.23
2022-09-24T21:34:27.077Z,11.38
2022-09-24T21:39:23.989Z,10.90
2022-09-24T21:41:53.628Z,11.68
2022-09-24T21:44:24.146Z,11.38
2022-09-24T21:46:52.755Z,12.93
2022-09-24T21:49:21.243Z,12.68
2022-09-24T21:51:52.574Z,13.65
2022-09-24T21:54:20.305Z,14.98
2022-09-24T21:56:48.062Z,13.68
2022-09-24T21:59:35.034Z,12.38
2022-09-24T22:02:03.337Z,13.05
2022-09-24T22:04:33.415Z,12.93
2022-09-24T22:07:01.097Z,11.75
2022-09-24T22:09:29.446Z,12.82
2022-09-24T22:11:59.109Z,12.55
2022-09-24T22:14:27.217Z,13.30
2022-09-24T22:16:55.512Z,13.40
2022-09-24T22:19:25.065Z,13.68
2022-09-24T22:21:52.805Z,13.40
2022-09-24T22:24:20.425Z,14.30
2022-09-24T22:26:49.660Z,14.32
2022-09-24T22:29:17.038Z,12.05
2022-09-24T22:31:44.417Z,12.43
2022-09-24T22:34:30.514Z,13.48
2022-09-24T22:37:00.409Z,12.73
2022-09-24T22:39:29.833Z,13.48
2022-09-24T22:41:57.135Z,13.15
2022-09-24T22:44:24.465Z,13.20
2022-09-24T22:46:56.659Z,13.23
2022-09-24T22:49:24.434Z,12.32
2022-09-24T22:51:54.486Z,12.38
2022-09-24T22:54:25.566Z,12.80
2022-09-24T22:56:52.929Z,14.77
2022-09-24T22:59:20.433Z,12.73
2022-09-24T23:01:50.171Z,15.18
2022-09-24T23:04:17.600Z,14.73
2022-09-24T23:06:44.906Z,14.43
2022-09-24T23:09:12.769Z,15.32
2022-09-24T23:11:40.629Z,14.32
2022-09-24T23:14:15.244Z,14.60
2022-09-24T23:16:43.972Z,15.00
2022-09-24T23:19:17.579Z,14.07
2022-09-24T23:21:45.965Z,14.70
2022-09-24T23:24:22.088Z,17.15
2022-09-24T23:26:51.260Z,17.90
2022-09-24T23:29:18.620Z,15.45
2022-09-24T23:31:46.068Z,17.42
2022-09-24T23:34:16.188Z,16.75
2022-09-24T23:36:45.379Z,17.60
2022-09-24T23:39:15.358Z,17.17
2022-09-24T23:41:47.350Z,17.50
2022-09-24T23:44:17.829Z,18.60
2022-09-24T23:46:45.461Z,17.60
2022-09-24T23:49:23.491Z,16.88
2022-09-24T23:51:53.528Z,16.25
2022-09-24T23:54:21.415Z,16.52
2022-09-24T23:56:48.908Z,16.88
2022-09-24T23:59:16.344Z,16.67
